Time;durP1;ratioP1;P1;durP2;ratioP2;P2;SDS_P1;SDS_P2;PMS_P1;PMS_P2;Temp;Humidity;BMP_temperature;BMP_pressure;BME280_temperature;BME280_humidity;BME280_pressure;Samples;Min_cycle;Max_cycle;Signal;HPM_P1;HPM_P2
2022/11/30 00:01:10;;;;;;;4.72;3.38;;;2.60;71.20;;;;;;5029123;28;20040;-58
2022/11/30 00:03:35;;;;;;;4.75;3.53;;;2.60;71.10;;;;;;5031441;28;20034;-56
2022/11/30 00:06:10;;;;;;;5.30;3.67;;;2.60;71.10;;;;;;5011425;28;20079;-58
2022/11/30 00:08:36;;;;;;;4.20;3.40;;;2.50;71.10;;;;;;5033156;28;20036;-58
2022/11/30 00:11:13;;;;;;;3.08;2.80;;;2.50;71.30;;;;;;5022861;28;20033;-57
2022/11/30 00:13:39;;;;;;;4.28;3.22;;;2.50;71.80;;;;;;5037958;28;20021;-57
2022/11/30 00:16:06;;;;;;;3.22;2.92;;;2.60;71.80;;;;;;5033590;28;20013;-58
2022/11/30 00:18:31;;;;;;;4.35;3.38;;;2.60;71.70;;;;;;5028860;28;20040;-58
2022/11/30 00:21:02;;;;;;;3.75;3.28;;;2.60;71.40;;;;;;5032254;28;20033;-58
2022/11/30 00:23:35;;;;;;;3.55;3.13;;;2.70;71.50;;;;;;5031847;28;20039;-58
2022/11/30 00:26:07;;;;;;;3.72;3.20;;;2.70;71.40;;;;;;5031101;28;20105;-58
2022/11/30 00:28:34;;;;;;;3.58;3.10;;;2.70;71.40;;;;;;5022876;28;20036;-58
2022/11/30 00:31:02;;;;;;;3.92;3.10;;;2.70;71.40;;;;;;5032100;28;20120;-58
2022/11/30 00:33:30;;;;;;;4.10;3.20;;;2.80;71.50;;;;;;5031131;28;20041;-58
2022/11/30 00:35:58;;;;;;;4.35;3.33;;;2.80;71.20;;;;;;5031556;28;20033;-58
2022/11/30 00:38:24;;;;;;;4.28;3.40;;;2.80;71.10;;;;;;5032482;28;20037;-58
2022/11/30 00:40:50;;;;;;;4.53;3.25;;;2.80;71.00;;;;;;5028495;28;20067;-57
2022/11/30 00:43:16;;;;;;;3.70;3.03;;;2.80;70.80;;;;;;5026921;28;20611;-58
2022/11/30 00:45:41;;;;;;;3.75;2.92;;;2.80;70.80;;;;;;5033030;28;20044;-58
2022/11/30 00:48:07;;;;;;;3.00;2.78;;;2.80;70.80;;;;;;5032450;28;20115;-56
2022/11/30 00:50:32;;;;;;;3.42;3.10;;;2.80;70.80;;;;;;5027047;28;20037;-56
2022/11/30 00:52:58;;;;;;;4.30;3.60;;;2.80;71.00;;;;;;5032979;28;20028;-58
2022/11/30 00:55:24;;;;;;;3.25;2.95;;;2.80;70.80;;;;;;5033026;28;20033;-57
2022/11/30 00:57:49;;;;;;;4.45;3.40;;;2.80;70.40;;;;;;5027958;28;20500;-58
2022/11/30 01:00:15;;;;;;;3.63;3.30;;;2.70;70.60;;;;;;5029190;28;20049;-58
2022/11/30 01:02:45;;;;;;;4.60;3.60;;;2.70;70.80;;;;;;5031433;28;20432;-57
2022/11/30 01:05:10;;;;;;;5.18;3.60;;;2.70;70.70;;;;;;5029557;28;20080;-58
2022/11/30 01:07:36;;;;;;;3.72;3.22;;;2.60;70.70;;;;;;5029210;28;20033;-58
2022/11/30 01:10:02;;;;;;;3.65;3.05;;;2.50;70.70;;;;;;5029106;28;21363;-57
2022/11/30 01:12:31;;;;;;;4.63;3.50;;;2.60;70.80;;;;;;5031004;28;20108;-57
2022/11/30 01:14:57;;;;;;;5.45;3.88;;;2.50;70.70;;;;;;5030790;28;20120;-58
2022/11/30 01:17:25;;;;;;;4.25;3.60;;;2.50;70.60;;;;;;5030770;28;20105;-56
2022/11/30 01:19:51;;;;;;;4.63;3.38;;;2.40;70.60;;;;;;5020231;28;20075;-58
2022/11/30 01:22:17;;;;;;;4.93;3.33;;;2.30;70.60;;;;;;5028602;28;20384;-58
2022/11/30 01:24:46;;;;;;;4.78;3.40;;;2.30;70.90;;;;;;5029163;28;20048;-56
2022/11/30 01:27:11;;;;;;;3.65;3.15;;;2.30;71.20;;;;;;5032111;28;20105;-58
2022/11/30 01:29:37;;;;;;;4.65;3.50;;;2.30;71.20;;;;;;5032517;28;20104;-57
2022/11/30 01:32:10;;;;;;;5.82;3.70;;;2.20;71.40;;;;;;5015924;28;20017;-58
2022/11/30 01:34:36;;;;;;;5.88;3.80;;;2.20;71.20;;;;;;5031675;28;20029;-58
2022/11/30 01:37:23;;;;;;;6.15;3.95;;;2.20;71.20;;;;;;5027603;28;20100;-58
2022/11/30 01:39:52;;;;;;;6.45;3.92;;;2.10;71.30;;;;;;5030965;28;20108;-58
2022/11/30 01:42:19;;;;;;;4.13;3.40;;;2.10;71.40;;;;;;5030694;28;20033;-57
2022/11/30 01:44:59;;;;;;;3.95;3.03;;;2.10;71.50;;;;;;5030882;28;20504;-57
2022/11/30 01:47:51;;;;;;;5.22;3.35;;;2.10;71.50;;;;;;5032127;28;20432;-57
2022/11/30 01:50:33;;;;;;;6.05;3.90;;;2.10;71.50;;;;;;5021875;28;20033;-58
2022/11/30 01:53:00;;;;;;;5.13;3.75;;;2.20;71.60;;;;;;5029784;28;20547;-58
2022/11/30 01:55:36;;;;;;;4.95;3.83;;;2.10;71.50;;;;;;5028890;28;20029;-58
2022/11/30 01:58:21;;;;;;;4.22;3.50;;;2.10;71.20;;;;;;5009067;28;20065;-58
2022/11/30 02:00:47;;;;;;;4.03;3.53;;;2.00;71.50;;;;;;5032361;28;20025;-58
2022/11/30 02:03:23;;;;;;;3.50;3.20;;;2.00;71.50;;;;;;5035904;28;20156;-56
2022/11/30 02:05:49;;;;;;;6.07;3.65;;;2.00;71.50;;;;;;5034532;28;20037;-58
2022/11/30 02:08:16;;;;;;;6.07;3.75;;;2.00;71.50;;;;;;5029105;28;20029;-57
2022/11/30 02:10:47;;;;;;;4.93;3.83;;;2.00;71.60;;;;;;5027751;28;20545;-56
2022/11/30 02:13:40;;;;;;;5.63;4.10;;;2.00;71.40;;;;;;5035952;28;20026;-58
2022/11/30 02:16:35;;;;;;;6.28;4.05;;;1.90;71.40;;;;;;5029238;28;20120;-57
2022/11/30 02:19:40;;;;;;;5.32;3.60;;;1.90;71.70;;;;;;5031542;28;20096;-57
2022/11/30 02:22:22;;;;;;;4.70;3.65;;;1.90;71.70;;;;;;4999906;28;20397;-58
2022/11/30 02:25:19;;;;;;;4.03;3.60;;;1.90;71.90;;;;;;5032252;28;20500;-57
2022/11/30 02:28:10;;;;;;;6.25;3.78;;;1.90;72.10;;;;;;5025664;28;20033;-57
2022/11/30 02:30:42;;;;;;;3.53;3.22;;;1.90;71.90;;;;;;5035430;28;20028;-57
2022/11/30 02:33:12;;;;;;;;;;;1.90;71.80;;;;;;5033095;28;20360;-58
2022/11/30 02:35:41;;;;;;;4.68;3.60;;;1.90;71.70;;;;;;5032868;28;19995;-56
2022/11/30 02:38:08;;;;;;;4.05;3.45;;;1.90;71.80;;;;;;5034545;28;20138;-57
2022/11/30 02:40:34;;;;;;;4.10;3.47;;;1.90;71.70;;;;;;5035424;28;20477;-58
2022/11/30 02:43:02;;;;;;;5.63;3.65;;;1.90;72.00;;;;;;5030355;28;20029;-58
2022/11/30 02:46:01;;;;;;;4.28;3.70;;;1.90;72.30;;;;;;5029911;28;20041;-58
2022/11/30 02:48:39;;;;;;;5.70;3.50;;;1.90;72.80;;;;;;5024143;28;20171;-58
2022/11/30 02:51:07;;;;;;;4.95;3.95;;;1.90;72.50;;;;;;5031665;28;20512;-58
2022/11/30 02:53:33;;;;;;;4.00;3.60;;;1.90;72.80;;;;;;5027949;28;20018;-56
2022/11/30 02:55:59;;;;;;;4.90;4.10;;;2.00;72.60;;;;;;5032837;28;20053;-58
2022/11/30 02:58:25;;;;;;;4.85;3.60;;;2.00;72.40;;;;;;5035320;28;20029;-58
2022/11/30 03:00:51;;;;;;;5.65;3.70;;;2.00;72.30;;;;;;5030373;28;20116;-58
2022/11/30 03:03:17;;;;;;;5.80;3.58;;;2.00;72.40;;;;;;5034544;28;20030;-57
2022/11/30 03:05:43;;;;;;;4.00;3.35;;;2.00;72.40;;;;;;5027259;28;20030;-58
2022/11/30 03:08:09;;;;;;;5.50;3.95;;;2.00;72.50;;;;;;5034416;28;20032;-57
2022/11/30 03:10:35;;;;;;;4.70;3.50;;;2.00;72.30;;;;;;5037507;28;20030;-58
2022/11/30 03:13:00;;;;;;;4.85;3.88;;;2.00;72.20;;;;;;5034322;28;20032;-56
2022/11/30 03:15:27;;;;;;;4.68;3.92;;;2.00;72.10;;;;;;5030061;28;20109;-58
2022/11/30 03:17:53;;;;;;;5.78;4.07;;;2.00;72.20;;;;;;5032574;28;20044;-57
2022/11/30 03:20:19;;;;;;;4.47;3.70;;;2.10;72.30;;;;;;5034734;28;20493;-58
2022/11/30 03:22:44;;;;;;;5.30;3.70;;;2.00;72.00;;;;;;5032774;28;20028;-56
2022/11/30 03:25:10;;;;;;;5.85;3.63;;;2.00;72.20;;;;;;5033540;28;20433;-58
2022/11/30 03:27:36;;;;;;;6.70;3.90;;;2.00;72.10;;;;;;5033895;28;20021;-57
2022/11/30 03:30:05;;;;;;;6.18;4.00;;;2.00;72.20;;;;;;5034562;28;20021;-58
2022/11/30 03:32:31;;;;;;;4.55;3.40;;;2.00;72.30;;;;;;5034839;28;20022;-58
2022/11/30 03:34:57;;;;;;;5.38;4.00;;;2.00;72.30;;;;;;5027907;28;20099;-58
2022/11/30 03:37:23;;;;;;;4.97;3.67;;;2.00;72.20;;;;;;5030452;28;20065;-58
2022/11/30 03:39:49;;;;;;;5.55;3.78;;;2.00;71.90;;;;;;5034295;28;20056;-58
2022/11/30 03:42:15;;;;;;;4.53;3.58;;;2.00;71.90;;;;;;5033506;28;20438;-58
2022/11/30 03:44:41;;;;;;;5.32;3.75;;;2.00;71.90;;;;;;5034007;28;20033;-59
2022/11/30 03:47:07;;;;;;;5.80;3.50;;;2.00;72.20;;;;;;5032142;28;20132;-58
2022/11/30 03:49:32;;;;;;;4.07;3.10;;;2.10;72.30;;;;;;5027803;28;20025;-57
2022/11/30 03:52:03;;;;;;;4.80;3.92;;;2.10;72.30;;;;;;5033690;28;20053;-58
2022/11/30 03:54:29;;;;;;;4.68;3.55;;;2.20;72.00;;;;;;5034249;28;20533;-58
2022/11/30 03:56:55;;;;;;;5.03;3.60;;;2.20;71.80;;;;;;5033182;28;20028;-58
2022/11/30 03:59:24;;;;;;;5.93;3.78;;;2.10;71.70;;;;;;5028888;28;20022;-58
2022/11/30 04:01:52;;;;;;;5.28;3.90;;;2.10;71.70;;;;;;5032740;28;20017;-59
2022/11/30 04:04:18;;;;;;;4.43;3.78;;;2.10;71.50;;;;;;5032479;28;20061;-58
2022/11/30 04:06:44;;;;;;;4.13;3.50;;;2.00;71.50;;;;;;5030701;28;20064;-55
2022/11/30 04:09:09;;;;;;;5.50;3.70;;;2.00;71.50;;;;;;5028228;28;20041;-57
2022/11/30 04:11:35;;;;;;;5.40;3.78;;;2.00;71.70;;;;;;5029981;28;20025;-59
2022/11/30 04:14:01;;;;;;;6.22;3.92;;;2.00;71.70;;;;;;5028282;28;20022;-58
2022/11/30 04:16:26;;;;;;;4.65;3.60;;;2.00;71.60;;;;;;5032559;28;20436;-58
2022/11/30 04:18:52;;;;;;;5.30;4.05;;;2.00;71.60;;;;;;5032390;28;20037;-58
2022/11/30 04:21:18;;;;;;;5.50;3.75;;;2.00;71.80;;;;;;5032448;28;20508;-58
2022/11/30 04:23:44;;;;;;;5.75;4.22;;;1.90;71.50;;;;;;5032926;28;20021;-58
2022/11/30 04:26:14;;;;;;;4.03;3.28;;;1.90;71.70;;;;;;5030942;28;20025;-58
2022/11/30 04:28:41;;;;;;;6.33;3.77;;;1.90;71.70;;;;;;5031392;28;20064;-57
2022/11/30 04:31:07;;;;;;;5.55;3.70;;;1.90;72.00;;;;;;5030814;28;20195;-58
2022/11/30 04:33:32;;;;;;;4.20;3.47;;;1.90;72.30;;;;;;5027822;28;20096;-58
2022/11/30 04:36:01;;;;;;;4.43;3.53;;;1.90;72.20;;;;;;5030585;28;20025;-56
2022/11/30 04:38:28;;;;;;;5.00;3.95;;;2.00;72.30;;;;;;5030510;28;20033;-57
2022/11/30 04:40:54;;;;;;;4.95;3.80;;;2.00;72.10;;;;;;5028525;28;20041;-56
2022/11/30 04:43:19;;;;;;;4.65;3.50;;;2.00;72.10;;;;;;5026539;28;20048;-57
2022/11/30 04:45:46;;;;;;;5.53;3.75;;;2.00;71.80;;;;;;5033400;28;20049;-58
2022/11/30 04:48:12;;;;;;;3.80;3.40;;;2.00;72.60;;;;;;5027249;28;20014;-58
2022/11/30 04:50:38;;;;;;;5.00;3.50;;;2.10;71.80;;;;;;5031076;28;20030;-57
2022/11/30 04:53:04;;;;;;;5.68;3.47;;;2.10;71.70;;;;;;5032232;28;20029;-57
2022/11/30 04:55:31;;;;;;;4.47;3.50;;;2.10;71.90;;;;;;5030528;28;20100;-57
2022/11/30 04:57:56;;;;;;;4.35;3.33;;;2.10;71.70;;;;;;5030559;28;20508;-58
2022/11/30 05:00:22;;;;;;;5.70;3.78;;;2.10;71.60;;;;;;5022879;28;20013;-58
2022/11/30 05:02:48;;;;;;;6.85;4.43;;;2.10;71.60;;;;;;5029221;28;20384;-57
2022/11/30 05:05:14;;;;;;;5.88;4.50;;;2.00;71.40;;;;;;5028861;28;20021;-57
2022/11/30 05:07:39;;;;;;;7.05;3.78;;;2.00;71.10;;;;;;5029031;28;20029;-58
2022/11/30 05:10:07;;;;;;;5.57;3.38;;;2.00;71.10;;;;;;5029643;28;20046;-58
2022/11/30 05:12:33;;;;;;;5.00;3.60;;;1.90;71.40;;;;;;5031578;28;20026;-58
2022/11/30 05:14:59;;;;;;;4.78;3.28;;;1.90;71.70;;;;;;5026374;28;20096;-56
2022/11/30 05:17:25;;;;;;;4.35;3.40;;;1.90;71.90;;;;;;5026158;28;20120;-58
2022/11/30 05:19:50;;;;;;;4.05;3.38;;;1.90;71.90;;;;;;5027179;28;20544;-57
2022/11/30 05:22:16;;;;;;;4.85;3.95;;;2.00;72.00;;;;;;5024773;28;20025;-56
2022/11/30 05:24:42;;;;;;;5.00;3.47;;;2.00;71.90;;;;;;5026562;28;20061;-55
2022/11/30 05:27:07;;;;;;;5.32;3.35;;;2.00;71.70;;;;;;5028348;28;20029;-57
2022/11/30 05:29:36;;;;;;;5.95;4.03;;;2.10;72.10;;;;;;5036570;28;20033;-57
2022/11/30 05:32:02;;;;;;;5.65;4.07;;;2.10;71.00;;;;;;5022224;28;20491;-58
2022/11/30 05:34:28;;;;;;;6.05;3.80;;;2.00;70.90;;;;;;5030046;28;20112;-58
2022/11/30 05:36:53;;;;;;;4.47;3.28;;;2.00;71.00;;;;;;5028025;28;20053;-57
2022/11/30 05:39:19;;;;;;;5.75;3.70;;;2.00;71.20;;;;;;5031336;28;20136;-57
2022/11/30 05:41:44;;;;;;;5.55;3.95;;;2.00;71.30;;;;;;5025917;28;20057;-58
2022/11/30 05:44:10;;;;;;;4.25;3.53;;;2.00;71.00;;;;;;5026983;28;20049;-56
2022/11/30 05:46:36;;;;;;;4.25;3.45;;;1.90;71.70;;;;;;5027006;28;20021;-57
2022/11/30 05:49:02;;;;;;;4.53;3.72;;;2.00;71.40;;;;;;5021959;28;20029;-58
2022/11/30 05:51:28;;;;;;;4.40;3.28;;;2.00;71.20;;;;;;5023880;28;20120;-58
2022/11/30 05:53:54;;;;;;;5.40;3.50;;;2.00;71.20;;;;;;5028265;28;20025;-58
2022/11/30 05:56:20;;;;;;;5.88;3.47;;;2.00;71.10;;;;;;5025038;28;20033;-57
2022/11/30 05:58:47;;;;;;;3.90;3.13;;;2.10;71.10;;;;;;5026978;28;20026;-58
2022/11/30 06:01:26;;;;;;;6.20;3.40;;;2.10;71.30;;;;;;5024674;28;20443;-58
2022/11/30 06:03:52;;;;;;;5.13;3.45;;;2.10;71.40;;;;;;5026957;28;20096;-56
2022/11/30 06:06:18;;;;;;;3.60;3.00;;;2.20;71.30;;;;;;5023458;28;20117;-56
2022/11/30 06:08:45;;;;;;;4.18;3.00;;;2.20;71.30;;;;;;5032627;28;20021;-58
2022/11/30 06:11:13;;;;;;;3.72;3.17;;;2.20;71.50;;;;;;5027033;28;20049;-58
2022/11/30 06:13:39;;;;;;;4.65;3.60;;;2.30;71.40;;;;;;5030125;28;20021;-56
2022/11/30 06:16:06;;;;;;;5.13;3.60;;;2.30;71.10;;;;;;5028272;28;20028;-58
2022/11/30 06:18:32;;;;;;;4.65;3.40;;;2.40;71.00;;;;;;5029849;28;20025;-58
2022/11/30 06:21:06;;;;;;;5.28;3.38;;;2.40;70.80;;;;;;5027403;28;20422;-58
2022/11/30 06:23:31;;;;;;;4.20;3.30;;;2.40;70.50;;;;;;5030365;28;20040;-56
2022/11/30 06:25:57;;;;;;;4.85;3.55;;;2.40;70.50;;;;;;5037723;28;20041;-58
2022/11/30 06:28:23;;;;;;;5.82;3.50;;;2.40;70.50;;;;;;5033458;28;20017;-57
2022/11/30 06:30:49;;;;;;;4.15;3.45;;;2.40;70.10;;;;;;5026726;28;20038;-58
2022/11/30 06:33:15;;;;;;;4.53;3.30;;;2.40;70.10;;;;;;5026757;28;20096;-58
2022/11/30 06:35:45;;;;;;;4.28;3.15;;;2.30;69.80;;;;;;5028767;28;20065;-57
2022/11/30 06:38:11;;;;;;;5.38;3.28;;;2.40;69.90;;;;;;5031074;28;20490;-58
2022/11/30 06:40:37;;;;;;;3.45;3.05;;;2.30;69.80;;;;;;5017889;28;20133;-57
2022/11/30 06:43:03;;;;;;;3.78;3.20;;;2.30;69.80;;;;;;5026096;28;20117;-58
2022/11/30 06:45:30;;;;;;;4.28;3.38;;;2.30;69.80;;;;;;5027220;28;20164;-57
2022/11/30 06:47:56;;;;;;;4.38;3.30;;;2.30;69.80;;;;;;5031701;28;20026;-59
2022/11/30 06:50:22;;;;;;;3.50;3.10;;;2.30;70.00;;;;;;5020208;28;20033;-58
2022/11/30 06:52:48;;;;;;;3.47;2.80;;;2.40;70.00;;;;;;5028662;28;20025;-57
2022/11/30 06:55:13;;;;;;;3.88;3.17;;;2.40;70.00;;;;;;5029429;28;20057;-58
2022/11/30 06:57:39;;;;;;;4.55;3.40;;;2.40;69.90;;;;;;5028286;28;20041;-59
2022/11/30 07:00:05;;;;;;;4.38;3.47;;;2.40;69.90;;;;;;5027839;28;20026;-58
2022/11/30 07:02:31;;;;;;;3.95;3.38;;;2.40;69.90;;;;;;5028211;28;20042;-58
2022/11/30 07:04:57;;;;;;;4.13;3.20;;;2.50;69.80;;;;;;5030713;28;20104;-57
2022/11/30 07:07:22;;;;;;;5.00;3.13;;;2.50;69.80;;;;;;5031617;28;20041;-58
2022/11/30 07:09:49;;;;;;;3.85;3.30;;;2.50;69.40;;;;;;5027038;28;20045;-59
2022/11/30 07:12:18;;;;;;;5.65;3.50;;;2.50;68.80;;;;;;5019141;28;20125;-57
2022/11/30 07:14:44;;;;;;;3.42;2.90;;;2.50;69.30;;;;;;5023474;28;20033;-59
2022/11/30 07:17:10;;;;;;;6.03;3.50;;;2.50;69.40;;;;;;5021442;28;20037;-58
2022/11/30 07:19:36;;;;;;;4.43;3.28;;;2.50;69.40;;;;;;5018687;28;20504;-58
2022/11/30 07:22:02;;;;;;;4.63;3.22;;;2.50;69.40;;;;;;5023397;28;20026;-58
2022/11/30 07:27:16;;;;;;;4.03;3.10;;;2.50;69.10;;;;;;5022706;28;20037;-58
2022/11/30 07:29:42;;;;;;;4.65;3.63;;;2.60;69.10;;;;;;5024587;28;20029;-58
2022/11/30 07:32:07;;;;;;;3.90;3.03;;;2.50;69.00;;;;;;5000769;28;20127;-59
2022/11/30 07:34:33;;;;;;;3.90;3.25;;;2.50;69.00;;;;;;5017340;28;20029;-57
2022/11/30 07:36:59;;;;;;;4.28;3.33;;;2.60;69.10;;;;;;5014520;28;20041;-58
2022/11/30 07:39:25;;;;;;;5.80;3.85;;;2.60;69.00;;;;;;5019483;28;20388;-58
2022/11/30 07:41:50;;;;;;;4.82;3.15;;;2.60;68.80;;;;;;5013300;28;20060;-58
2022/11/30 07:44:19;;;;;;;5.25;3.30;;;2.50;68.80;;;;;;5022022;28;20034;-57
2022/11/30 07:46:48;;;;;;;5.18;3.88;;;2.50;69.00;;;;;;5018926;28;20090;-58
2022/11/30 07:49:14;;;;;;;3.38;2.95;;;2.60;69.10;;;;;;5021347;28;20506;-57
2022/11/30 07:51:40;;;;;;;4.93;3.20;;;2.60;69.00;;;;;;5013461;28;20044;-58
2022/11/30 07:54:06;;;;;;;6.05;3.50;;;2.60;69.70;;;;;;5019450;28;20048;-58
2022/11/30 07:56:33;;;;;;;3.72;3.17;;;2.60;68.80;;;;;;5010784;28;20033;-58
2022/11/30 07:59:00;;;;;;;4.43;3.10;;;2.60;68.90;;;;;;5014939;28;21218;-57
2022/11/30 08:01:36;;;;;;;5.18;3.42;;;2.70;68.80;;;;;;5017475;28;20035;-56
2022/11/30 08:04:04;;;;;;;3.85;2.88;;;2.70;68.70;;;;;;5008841;28;20416;-57
2022/11/30 08:06:31;;;;;;;4.65;3.75;;;2.70;68.70;;;;;;5014674;28;20087;-57
2022/11/30 08:09:02;;;;;;;3.47;3.08;;;2.70;68.50;;;;;;5003331;28;20038;-57
2022/11/30 08:11:30;;;;;;;3.47;2.95;;;2.70;68.30;;;;;;5008588;28;20021;-55
2022/11/30 08:13:56;;;;;;;4.70;3.25;;;2.70;68.20;;;;;;5016618;28;20639;-57
2022/11/30 08:16:26;;;;;;;3.70;3.08;;;2.70;67.90;;;;;;5023000;28;20152;-57
2022/11/30 08:18:52;;;;;;;3.88;2.97;;;2.70;68.00;;;;;;5013895;28;20025;-56
2022/11/30 08:21:20;;;;;;;5.85;3.50;;;2.80;68.20;;;;;;5011977;28;20040;-57
2022/11/30 08:23:48;;;;;;;4.60;3.40;;;2.70;68.20;;;;;;5018267;28;20033;-55
2022/11/30 08:26:20;;;;;;;3.72;3.00;;;2.70;68.00;;;;;;5011783;28;20439;-57
2022/11/30 08:28:48;;;;;;;4.32;3.03;;;2.80;68.00;;;;;;5014525;28;20092;-57
2022/11/30 08:31:25;;;;;;;3.72;3.17;;;2.80;68.00;;;;;;5010957;28;20030;-55
2022/11/30 08:34:05;;;;;;;3.65;3.15;;;2.90;68.00;;;;;;5012200;28;20036;-57
2022/11/30 08:36:31;;;;;;;4.55;3.10;;;2.90;67.80;;;;;;4994512;28;20120;-58
2022/11/30 08:39:03;;;;;;;4.25;3.20;;;3.00;68.70;;;;;;5010467;28;20029;-59
2022/11/30 08:41:33;;;;;;;5.20;3.35;;;3.00;67.70;;;;;;5003658;28;21059;-56
2022/11/30 08:44:00;;;;;;;3.30;2.70;;;3.00;67.50;;;;;;5000668;28;20468;-55
2022/11/30 08:46:26;;;;;;;5.90;3.00;;;3.00;68.00;;;;;;5003147;28;20030;-56
2022/11/30 08:48:52;;;;;;;4.15;3.47;;;3.10;67.60;;;;;;5000177;28;20331;-54
2022/11/30 08:51:19;;;;;;;4.65;2.88;;;3.10;67.50;;;;;;4999510;28;20083;-55
2022/11/30 08:53:47;;;;;;;4.22;3.30;;;3.20;67.40;;;;;;5007608;28;20029;-55
2022/11/30 08:56:17;;;;;;;2.58;2.35;;;3.20;67.20;;;;;;5013586;28;20052;-55
2022/11/30 08:58:43;;;;;;;4.47;3.08;;;3.20;67.20;;;;;;5003145;28;20527;-57
2022/11/30 09:01:29;;;;;;;4.10;2.95;;;3.30;67.00;;;;;;5000092;28;20476;-58
2022/11/30 09:03:58;;;;;;;3.88;3.03;;;3.40;66.60;;;;;;5010968;28;20030;-58
2022/11/30 09:06:30;;;;;;;4.28;2.90;;;3.40;66.50;;;;;;5003938;28;20037;-57
2022/11/30 09:08:56;;;;;;;;;;;3.30;66.20;;;;;;5000593;28;20044;-54
2022/11/30 09:11:32;;;;;;;3.83;3.10;;;3.30;65.70;;;;;;4996617;28;19924;-58
2022/11/30 09:14:00;;;;;;;4.50;3.05;;;3.30;66.10;;;;;;4988210;28;20025;-55
2022/11/30 09:16:27;;;;;;;3.90;3.17;;;3.30;66.40;;;;;;5006855;28;20030;-55
2022/11/30 09:18:56;;;;;;;4.57;3.13;;;3.20;66.10;;;;;;4993277;28;20025;-56
2022/11/30 09:21:23;;;;;;;4.13;3.08;;;3.20;66.30;;;;;;5002402;28;20226;-56
2022/11/30 09:23:51;;;;;;;4.30;3.00;;;3.10;66.30;;;;;;5004631;28;20038;-58
2022/11/30 09:26:19;;;;;;;4.32;3.20;;;3.10;66.40;;;;;;4994542;28;20030;-57
2022/11/30 09:28:46;;;;;;;3.88;3.15;;;3.10;66.20;;;;;;4993619;28;20029;-55
2022/11/30 09:31:18;;;;;;;3.53;3.10;;;3.10;66.30;;;;;;4991016;28;20029;-58
2022/11/30 09:33:45;;;;;;;3.97;3.20;;;3.10;66.20;;;;;;5000425;28;20023;-56
2022/11/30 09:36:14;;;;;;;3.20;2.80;;;3.10;65.90;;;;;;4996350;28;20153;-56
2022/11/30 09:38:43;;;;;;;3.53;3.20;;;3.00;65.90;;;;;;4997558;28;20128;-55
2022/11/30 09:41:32;;;;;;;3.78;3.10;;;3.00;66.20;;;;;;4999999;28;20119;-57
2022/11/30 09:44:23;;;;;;;4.05;3.05;;;3.00;66.30;;;;;;5003697;28;20034;-56
2022/11/30 09:46:59;;;;;;;3.58;3.22;;;3.00;66.30;;;;;;5002496;28;20388;-57
2022/11/30 09:49:29;;;;;;;3.97;3.00;;;3.10;66.40;;;;;;5003408;28;20693;-57
2022/11/30 09:51:59;;;;;;;4.65;3.50;;;3.10;66.20;;;;;;4996926;28;20044;-56
2022/11/30 09:54:38;;;;;;;3.85;3.20;;;3.10;65.90;;;;;;5002843;28;20029;-56
2022/11/30 09:57:33;;;;;;;3.20;2.58;;;3.10;65.80;;;;;;4992289;28;20033;-56
2022/11/30 10:00:14;;;;;;;3.78;2.75;;;3.20;66.70;;;;;;4998441;28;20040;-57
2022/11/30 10:02:41;;;;;;;3.47;2.85;;;3.20;66.00;;;;;;5005975;28;20543;-53
2022/11/30 10:05:26;;;;;;;6.47;3.60;;;3.20;65.90;;;;;;4999473;28;20025;-57
2022/11/30 10:08:16;;;;;;;5.80;3.30;;;3.30;65.60;;;;;;4999749;28;20038;-58
2022/11/30 10:10:58;;;;;;;4.28;3.10;;;3.30;65.50;;;;;;4980802;28;21071;-59
2022/11/30 10:13:38;;;;;;;3.78;2.85;;;3.30;65.50;;;;;;4998350;28;20104;-57
2022/11/30 10:16:57;;;;;;;3.38;2.80;;;3.40;65.50;;;;;;4995176;28;20061;-56
2022/11/30 10:19:59;;;;;;;2.78;2.58;;;3.40;65.10;;;;;;4881426;29;20040;-57
2022/11/30 10:23:08;;;;;;;3.67;3.30;;;3.40;65.20;;;;;;4875631;29;20044;-56
2022/11/30 10:25:56;;;;;;;4.38;2.92;;;3.50;65.00;;;;;;4998297;28;20134;-56
2022/11/30 10:28:46;;;;;;;3.35;3.03;;;3.50;64.80;;;;;;5001225;28;20039;-58
2022/11/30 10:31:13;;;;;;;4.40;3.33;;;3.40;64.70;;;;;;4995947;28;21138;-57
2022/11/30 10:33:48;;;;;;;4.43;2.70;;;3.40;64.70;;;;;;4984853;28;20033;-57
2022/11/30 10:36:43;;;;;;;3.75;3.08;;;3.40;64.80;;;;;;4978937;28;20037;-60
2022/11/30 10:39:30;;;;;;;4.13;3.00;;;3.40;64.90;;;;;;5003399;28;20030;-56
2022/11/30 10:42:20;;;;;;;2.83;2.53;;;3.50;65.50;;;;;;4996255;28;20041;-57
2022/11/30 10:45:00;;;;;;;7.18;3.38;;;3.50;64.70;;;;;;4987521;28;20042;-55
2022/11/30 10:47:35;;;;;;;4.00;3.13;;;3.50;64.60;;;;;;5005050;28;20037;-55
2022/11/30 10:50:03;;;;;;;4.45;2.95;;;3.50;64.50;;;;;;4998504;28;20084;-57
2022/11/30 10:52:34;;;;;;;2.92;2.63;;;3.50;64.30;;;;;;5007214;28;20026;-56
2022/11/30 10:55:01;;;;;;;2.85;2.55;;;3.50;64.30;;;;;;5002786;28;20060;-55
2022/11/30 10:57:31;;;;;;;3.90;3.22;;;3.50;64.40;;;;;;5006769;28;20364;-57
2022/11/30 10:59:59;;;;;;;2.67;2.47;;;3.50;64.50;;;;;;5001242;28;20025;-56
2022/11/30 11:02:35;;;;;;;4.00;2.88;;;3.50;64.30;;;;;;5006403;28;20029;-56
2022/11/30 11:05:14;;;;;;;2.88;2.58;;;3.60;64.30;;;;;;5006418;28;20064;-57
2022/11/30 11:07:48;;;;;;;3.58;2.90;;;3.60;64.20;;;;;;5004671;28;20029;-57
2022/11/30 11:10:39;;;;;;;3.53;2.78;;;3.60;64.10;;;;;;4999972;28;20034;-56
2022/11/30 11:13:14;;;;;;;4.65;3.30;;;3.60;64.10;;;;;;4985124;28;20049;-57
2022/11/30 11:15:39;;;;;;;6.00;3.10;;;3.60;63.90;;;;;;4986194;28;20131;-58
2022/11/30 11:18:21;;;;;;;3.15;2.70;;;3.60;64.10;;;;;;5005649;28;20481;-57
2022/11/30 11:20:47;;;;;;;3.00;2.70;;;3.60;64.20;;;;;;4997152;28;20037;-57
2022/11/30 11:23:39;;;;;;;2.92;2.65;;;3.60;64.20;;;;;;4997329;28;20037;-58
2022/11/30 11:26:07;;;;;;;3.92;2.78;;;3.70;64.30;;;;;;4997545;28;20191;-56
2022/11/30 11:28:36;;;;;;;2.90;2.60;;;3.70;64.40;;;;;;4984688;28;20171;-57
2022/11/30 11:31:34;;;;;;;2.92;2.58;;;3.80;64.30;;;;;;4995201;28;20808;-55
2022/11/30 11:34:00;;;;;;;2.80;2.50;;;3.80;64.20;;;;;;4998139;28;20533;-58
2022/11/30 11:36:31;;;;;;;4.10;3.05;;;3.90;64.40;;;;;;4996850;28;20052;-59
2022/11/30 11:38:59;;;;;;;2.83;2.58;;;3.90;64.00;;;;;;4990188;28;20029;-59
2022/11/30 11:41:34;;;;;;;3.10;2.78;;;3.90;64.20;;;;;;4992238;28;20184;-57
2022/11/30 11:44:09;;;;;;;2.88;2.55;;;4.00;64.10;;;;;;4984168;28;20045;-59
2022/11/30 11:46:37;;;;;;;3.80;2.83;;;4.00;64.10;;;;;;4995365;28;20038;-58
2022/11/30 11:49:18;;;;;;;4.10;2.90;;;4.10;64.00;;;;;;5001032;28;20033;-56
2022/11/30 11:51:45;;;;;;;2.97;2.58;;;4.10;63.80;;;;;;4995085;28;21200;-57
2022/11/30 11:54:26;;;;;;;3.33;2.63;;;4.10;63.70;;;;;;5003954;28;20029;-58
2022/11/30 11:56:54;;;;;;;5.35;2.80;;;4.20;63.60;;;;;;5010167;28;20026;-57
2022/11/30 11:59:50;;;;;;;4.13;3.03;;;4.20;63.60;;;;;;5003840;28;20497;-58
2022/11/30 12:02:25;;;;;;;4.70;2.95;;;4.10;62.50;;;;;;4996102;28;20037;-57
2022/11/30 12:04:55;;;;;;;4.45;3.05;;;4.00;62.40;;;;;;4976637;28;20033;-56
2022/11/30 12:07:33;;;;;;;3.50;2.80;;;3.90;62.40;;;;;;4991952;28;20044;-57
2022/11/30 12:10:40;;;;;;;3.65;2.65;;;3.90;62.70;;;;;;4991776;28;20029;-56
2022/11/30 12:13:16;;;;;;;5.63;3.15;;;3.80;62.70;;;;;;5001641;28;20029;-56
2022/11/30 12:16:05;;;;;;;2.67;2.40;;;3.80;62.70;;;;;;5001919;28;20036;-56
2022/11/30 12:18:40;;;;;;;3.08;2.78;;;3.70;62.40;;;;;;4993389;28;20099;-56
2022/11/30 12:21:21;;;;;;;2.92;2.50;;;3.70;62.60;;;;;;4993188;28;20034;-58
2022/11/30 12:23:56;;;;;;;;;;;3.60;62.70;;;;;;4997487;28;20806;-57
2022/11/30 12:26:41;;;;;;;4.20;2.47;;;3.60;62.90;;;;;;5000096;28;19916;-59
2022/11/30 12:29:42;;;;;;;4.30;2.78;;;3.60;63.40;;;;;;5001792;28;20033;-58
2022/11/30 12:32:30;;;;;;;2.90;2.50;;;3.70;63.30;;;;;;4998408;28;20453;-58
2022/11/30 12:35:26;;;;;;;5.95;2.92;;;3.70;62.90;;;;;;4993553;28;20036;-58
2022/11/30 12:38:03;;;;;;;3.97;2.80;;;3.60;62.60;;;;;;5002269;28;20053;-58
2022/11/30 12:41:03;;;;;;;2.80;2.45;;;3.60;62.50;;;;;;4985028;28;20112;-55
2022/11/30 12:43:29;;;;;;;4.20;2.88;;;3.60;62.70;;;;;;4998977;28;20025;-56
2022/11/30 12:46:06;;;;;;;3.83;2.80;;;3.60;62.60;;;;;;4995056;28;20041;-57
2022/11/30 12:49:02;;;;;;;4.13;2.58;;;3.60;62.70;;;;;;4993295;28;20029;-57
2022/11/30 12:52:01;;;;;;;5.45;3.15;;;3.60;62.50;;;;;;4991214;28;20033;-57
2022/11/30 12:55:13;;;;;;;2.80;2.50;;;3.60;62.10;;;;;;4989156;28;20108;-56
2022/11/30 12:57:47;;;;;;;3.63;2.92;;;3.50;62.20;;;;;;4997158;28;20059;-56
2022/11/30 13:00:20;;;;;;;5.05;2.90;;;3.50;62.70;;;;;;4990572;28;20033;-57
2022/11/30 13:03:27;;;;;;;3.65;2.75;;;3.40;62.30;;;;;;4974294;28;20060;-55
2022/11/30 13:06:09;;;;;;;4.22;2.88;;;3.40;62.30;;;;;;4992654;28;20099;-57
2022/11/30 13:09:04;;;;;;;2.92;2.55;;;3.40;62.30;;;;;;4986685;28;20029;-57
2022/11/30 13:11:37;;;;;;;3.13;2.60;;;3.40;62.10;;;;;;5000545;28;20044;-57
2022/11/30 13:14:14;;;;;;;4.32;2.70;;;3.30;62.40;;;;;;4997299;28;20032;-56
2022/11/30 13:16:45;;;;;;;4.63;2.90;;;3.40;62.60;;;;;;4996598;28;20018;-57
2022/11/30 13:19:26;;;;;;;4.47;2.75;;;3.40;62.40;;;;;;5000909;28;20033;-57
2022/11/30 13:21:58;;;;;;;3.38;3.00;;;3.40;62.50;;;;;;4996223;28;20030;-58
2022/11/30 13:24:34;;;;;;;2.88;2.58;;;3.40;62.60;;;;;;5009805;28;21114;-56